sensor_id;sensor_type;location;lat;lon;timestamp;P1;durP1;ratioP1;P2;durP2;ratioP2
37169;SDS011;23062;13.952;100.608;2024-03-02T00:03:38;2.74;;;5.69;;
37169;SDS011;23062;13.952;100.608;2024-03-02T00:08:22;1.74;;;5.83;;
37169;SDS011;23062;13.952;100.608;2024-03-02T00:13:03;1.90;;;5.87;;
37169;SDS011;23062;13.952;100.608;2024-03-02T00:17:43;1.72;;;5.82;;
37169;SDS011;23062;13.952;100.608;2024-03-02T00:22:29;1.72;;;5.82;;
37169;SDS011;23062;13.952;100.608;2024-03-02T00:27:14;2.06;;;6.55;;
37169;SDS011;23062;13.952;100.608;2024-03-02T00:31:59;1.67;;;5.75;;
37169;SDS011;23062;13.952;100.608;2024-03-02T00:36:39;1.77;;;6.50;;
37169;SDS011;23062;13.952;100.608;2024-03-02T00:41:22;2.22;;;6.95;;
37169;SDS011;23062;13.952;100.608;2024-03-02T00:46:09;1.68;;;5.81;;
37169;SDS011;23062;13.952;100.608;2024-03-02T00:50:56;2.21;;;6.95;;
37169;SDS011;23062;13.952;100.608;2024-03-02T00:55:40;2.88;;;7.06;;
37169;SDS011;23062;13.952;100.608;2024-03-02T01:00:20;2.92;;;7.12;;
37169;SDS011;23062;13.952;100.608;2024-03-02T01:04:58;3.03;;;6.42;;
37169;SDS011;23062;13.952;100.608;2024-03-02T01:09:35;2.50;;;6.01;;
37169;SDS011;23062;13.952;100.608;2024-03-02T01:14:12;2.69;;;6.02;;
37169;SDS011;23062;13.952;100.608;2024-03-02T01:18:51;3.11;;;6.09;;
37169;SDS011;23062;13.952;100.608;2024-03-02T01:23:31;2.86;;;6.10;;
37169;SDS011;23062;13.952;100.608;2024-03-02T01:28:15;3.06;;;6.46;;
37169;SDS011;23062;13.952;100.608;2024-03-02T01:33:01;2.90;;;5.76;;
37169;SDS011;23062;13.952;100.608;2024-03-02T01:37:48;3.49;;;6.91;;
37169;SDS011;23062;13.952;100.608;2024-03-02T01:42:25;3.69;;;7.00;;
37169;SDS011;23062;13.952;100.608;2024-03-02T01:47:08;3.73;;;6.97;;
37169;SDS011;23062;13.952;100.608;2024-03-02T01:51:45;4.45;;;7.77;;
37169;SDS011;23062;13.952;100.608;2024-03-02T01:56:28;3.66;;;6.60;;
37169;SDS011;23062;13.952;100.608;2024-03-02T02:01:08;3.96;;;7.02;;
37169;SDS011;23062;13.952;100.608;2024-03-02T02:05:51;4.85;;;7.50;;
37169;SDS011;23062;13.952;100.608;2024-03-02T02:10:28;4.29;;;6.75;;
37169;SDS011;23062;13.952;100.608;2024-03-02T02:20:13;5.41;;;8.03;;
37169;SDS011;23062;13.952;100.608;2024-03-02T02:24:51;5.68;;;8.80;;
37169;SDS011;23062;13.952;100.608;2024-03-02T02:29:28;4.96;;;7.21;;
37169;SDS011;23062;13.952;100.608;2024-03-02T02:34:14;6.28;;;9.25;;
37169;SDS011;23062;13.952;100.608;2024-03-02T02:39:00;5.82;;;8.53;;
37169;SDS011;23062;13.952;100.608;2024-03-02T02:43:45;6.80;;;8.96;;
37169;SDS011;23062;13.952;100.608;2024-03-02T02:48:31;7.71;;;10.60;;
37169;SDS011;23062;13.952;100.608;2024-03-02T02:53:16;6.47;;;8.99;;
37169;SDS011;23062;13.952;100.608;2024-03-02T02:57:52;6.25;;;8.58;;
37169;SDS011;23062;13.952;100.608;2024-03-02T03:02:37;7.31;;;9.49;;
37169;SDS011;23062;13.952;100.608;2024-03-02T03:07:15;7.57;;;9.50;;
37169;SDS011;23062;13.952;100.608;2024-03-02T03:12:02;7.03;;;9.48;;
37169;SDS011;23062;13.952;100.608;2024-03-02T03:16:43;7.11;;;8.73;;
37169;SDS011;23062;13.952;100.608;2024-03-02T03:21:22;7.16;;;9.57;;
37169;SDS011;23062;13.952;100.608;2024-03-02T03:26:07;7.89;;;10.34;;
37169;SDS011;23062;13.952;100.608;2024-03-02T03:30:45;7.91;;;10.35;;
37169;SDS011;23062;13.952;100.608;2024-03-02T03:35:30;7.86;;;9.92;;
37169;SDS011;23062;13.952;100.608;2024-03-02T03:40:14;8.05;;;10.38;;
37169;SDS011;23062;13.952;100.608;2024-03-02T03:44:52;7.35;;;9.37;;
37169;SDS011;23062;13.952;100.608;2024-03-02T03:49:30;8.98;;;10.18;;
37169;SDS011;23062;13.952;100.608;2024-03-02T03:54:18;9.47;;;10.59;;
37169;SDS011;23062;13.952;100.608;2024-03-02T03:58:55;8.48;;;9.40;;
37169;SDS011;23062;13.952;100.608;2024-03-02T04:03:38;9.32;;;10.26;;
37169;SDS011;23062;13.952;100.608;2024-03-02T04:08:18;10.18;;;11.25;;
37169;SDS011;23062;13.952;100.608;2024-03-02T04:13:03;9.66;;;10.41;;
37169;SDS011;23062;13.952;100.608;2024-03-02T04:17:47;10.49;;;10.89;;
37169;SDS011;23062;13.952;100.608;2024-03-02T04:22:31;11.02;;;11.82;;
37169;SDS011;23062;13.952;100.608;2024-03-02T04:27:11;9.83;;;10.08;;
37169;SDS011;23062;13.952;100.608;2024-03-02T04:31:55;10.51;;;10.61;;
37169;SDS011;23062;13.952;100.608;2024-03-02T04:36:39;12.79;;;12.62;;
37169;SDS011;23062;13.952;100.608;2024-03-02T04:41:19;13.15;;;13.06;;
37169;SDS011;23062;13.952;100.608;2024-03-02T04:45:55;14.11;;;13.30;;
37169;SDS011;23062;13.952;100.608;2024-03-02T04:50:40;14.37;;;12.82;;
37169;SDS011;23062;13.952;100.608;2024-03-02T04:55:17;14.61;;;12.87;;
37169;SDS011;23062;13.952;100.608;2024-03-02T05:00:14;14.74;;;13.36;;
37169;SDS011;23062;13.952;100.608;2024-03-02T05:04:53;13.21;;;11.53;;
37169;SDS011;23062;13.952;100.608;2024-03-02T05:09:32;14.95;;;12.95;;
37169;SDS011;23062;13.952;100.608;2024-03-02T05:14:17;15.52;;;13.37;;
37169;SDS011;23062;13.952;100.608;2024-03-02T05:19:02;14.58;;;13.79;;
37169;SDS011;23062;13.952;100.608;2024-03-02T05:23:48;13.23;;;12.36;;
37169;SDS011;23062;13.952;100.608;2024-03-02T05:28:32;12.58;;;11.47;;
37169;SDS011;23062;13.952;100.608;2024-03-02T05:33:18;14.05;;;12.74;;
37169;SDS011;23062;13.952;100.608;2024-03-02T05:37:59;13.74;;;13.12;;
37169;SDS011;23062;13.952;100.608;2024-03-02T05:42:37;13.80;;;12.68;;
37169;SDS011;23062;13.952;100.608;2024-03-02T05:47:14;13.01;;;12.22;;
37169;SDS011;23062;13.952;100.608;2024-03-02T05:51:51;14.31;;;13.63;;
37169;SDS011;23062;13.952;100.608;2024-03-02T05:56:36;14.75;;;13.64;;
37169;SDS011;23062;13.952;100.608;2024-03-02T06:01:13;12.63;;;12.30;;
37169;SDS011;23062;13.952;100.608;2024-03-02T06:06:00;14.27;;;13.25;;
37169;SDS011;23062;13.952;100.608;2024-03-02T06:10:48;14.08;;;13.66;;
37169;SDS011;23062;13.952;100.608;2024-03-02T06:15:26;14.40;;;12.74;;
37169;SDS011;23062;13.952;100.608;2024-03-02T06:20:04;14.55;;;13.23;;
37169;SDS011;23062;13.952;100.608;2024-03-02T06:24:49;13.38;;;12.67;;
37169;SDS011;23062;13.952;100.608;2024-03-02T06:29:36;14.20;;;13.43;;
37169;SDS011;23062;13.952;100.608;2024-03-02T06:34:15;14.67;;;13.91;;
37169;SDS011;23062;13.952;100.608;2024-03-02T06:38:53;14.25;;;14.25;;
37169;SDS011;23062;13.952;100.608;2024-03-02T06:43:36;15.48;;;15.12;;
37169;SDS011;23062;13.952;100.608;2024-03-02T06:48:23;12.67;;;13.15;;
37169;SDS011;23062;13.952;100.608;2024-03-02T06:53:10;11.09;;;11.69;;
37169;SDS011;23062;13.952;100.608;2024-03-02T06:57:53;13.16;;;14.57;;
37169;SDS011;23062;13.952;100.608;2024-03-02T07:02:37;11.66;;;13.70;;
37169;SDS011;23062;13.952;100.608;2024-03-02T07:07:25;11.63;;;13.62;;
37169;SDS011;23062;13.952;100.608;2024-03-02T07:12:11;12.03;;;14.37;;
37169;SDS011;23062;13.952;100.608;2024-03-02T07:17:01;10.23;;;12.17;;
37169;SDS011;23062;13.952;100.608;2024-03-02T07:21:44;9.83;;;12.60;;
37169;SDS011;23062;13.952;100.608;2024-03-02T07:26:31;11.61;;;14.27;;
37169;SDS011;23062;13.952;100.608;2024-03-02T07:31:10;11.05;;;13.36;;
37169;SDS011;23062;13.952;100.608;2024-03-02T07:35:50;9.73;;;13.46;;
37169;SDS011;23062;13.952;100.608;2024-03-02T07:40:38;7.74;;;13.43;;
37169;SDS011;23062;13.952;100.608;2024-03-02T07:45:27;6.39;;;13.40;;
37169;SDS011;23062;13.952;100.608;2024-03-02T07:50:05;6.40;;;14.32;;
37169;SDS011;23062;13.952;100.608;2024-03-02T07:54:46;3.23;;;13.60;;
37169;SDS011;23062;13.952;100.608;2024-03-02T07:59:29;2.55;;;13.45;;
37169;SDS011;23062;13.952;100.608;2024-03-02T08:04:12;1.50;;;12.86;;
37169;SDS011;23062;13.952;100.608;2024-03-02T08:08:49;1.45;;;11.15;;
37169;SDS011;23062;13.952;100.608;2024-03-02T08:13:35;1.17;;;11.08;;
37169;SDS011;23062;13.952;100.608;2024-03-02T08:18:20;0.13;;;10.50;;
37169;SDS011;23062;13.952;100.608;2024-03-02T08:23:04;0.14;;;10.85;;
37169;SDS011;23062;13.952;100.608;2024-03-02T08:27:44;0.49;;;10.92;;
37169;SDS011;23062;13.952;100.608;2024-03-02T08:32:29;0.48;;;10.93;;
37169;SDS011;23062;13.952;100.608;2024-03-02T08:37:14;0.32;;;11.23;;
37169;SDS011;23062;13.952;100.608;2024-03-02T08:41:53;-0.67;;;11.67;;
37169;SDS011;23062;13.952;100.608;2024-03-02T08:46:30;-0.66;;;11.34;;
37169;SDS011;23062;13.952;100.608;2024-03-02T08:51:12;-1.35;;;11.18;;
37169;SDS011;23062;13.952;100.608;2024-03-02T08:55:58;-0.54;;;11.02;;
37169;SDS011;23062;13.952;100.608;2024-03-02T09:00:34;-1.05;;;10.89;;
37169;SDS011;23062;13.952;100.608;2024-03-02T09:05:13;-0.74;;;10.64;;
37169;SDS011;23062;13.952;100.608;2024-03-02T09:10:02;-0.92;;;11.26;;
37169;SDS011;23062;13.952;100.608;2024-03-02T09:14:46;0.87;;;12.04;;
37169;SDS011;23062;13.952;100.608;2024-03-02T09:19:25;0.87;;;11.03;;
37169;SDS011;23062;13.952;100.608;2024-03-02T09:24:10;0.91;;;11.38;;
37169;SDS011;23062;13.952;100.608;2024-03-02T09:28:53;1.15;;;11.78;;
37169;SDS011;23062;13.952;100.608;2024-03-02T09:33:36;0.65;;;10.97;;
37169;SDS011;23062;13.952;100.608;2024-03-02T09:38:14;0.02;;;9.80;;
37169;SDS011;23062;13.952;100.608;2024-03-02T09:42:51;0.45;;;14.30;;
37169;SDS011;23062;13.952;100.608;2024-03-02T09:47:40;2.02;;;14.69;;
37169;SDS011;23062;13.952;100.608;2024-03-02T09:52:26;3.10;;;17.61;;
37169;SDS011;23062;13.952;100.608;2024-03-02T09:57:09;2.53;;;17.17;;
37169;SDS011;23062;13.952;100.608;2024-03-02T10:01:57;0.89;;;15.42;;
37169;SDS011;23062;13.952;100.608;2024-03-02T10:06:42;1.67;;;15.96;;
37169;SDS011;23062;13.952;100.608;2024-03-02T10:11:27;2.41;;;15.11;;
37169;SDS011;23062;13.952;100.608;2024-03-02T10:16:15;2.50;;;15.80;;
37169;SDS011;23062;13.952;100.608;2024-03-02T10:21:12;-1.93;;;14.76;;
37169;SDS011;23062;13.952;100.608;2024-03-02T10:25:38;-0.40;;;13.42;;
37169;SDS011;23062;13.952;100.608;2024-03-02T10:30:17;1.91;;;13.63;;
37169;SDS011;23062;13.952;100.608;2024-03-02T10:35:03;3.62;;;13.04;;
37169;SDS011;23062;13.952;100.608;2024-03-02T10:39:49;4.84;;;12.97;;
37169;SDS011;23062;13.952;100.608;2024-03-02T10:44:28;6.73;;;13.76;;
37169;SDS011;23062;13.952;100.608;2024-03-02T10:49:06;6.41;;;12.67;;
37169;SDS011;23062;13.952;100.608;2024-03-02T10:53:52;7.15;;;12.46;;
37169;SDS011;23062;13.952;100.608;2024-03-02T10:58:37;7.89;;;12.72;;
37169;SDS011;23062;13.952;100.608;2024-03-02T11:03:17;7.06;;;11.55;;
37169;SDS011;23062;13.952;100.608;2024-03-02T11:08:00;7.21;;;10.94;;
37169;SDS011;23062;13.952;100.608;2024-03-02T11:12:56;8.05;;;11.45;;
37169;SDS011;23062;13.952;100.608;2024-03-02T11:17:37;8.52;;;10.82;;
37169;SDS011;23062;13.952;100.608;2024-03-02T11:22:15;10.06;;;12.17;;
37169;SDS011;23062;13.952;100.608;2024-03-02T11:26:58;9.61;;;11.71;;
37169;SDS011;23062;13.952;100.608;2024-03-02T11:36:41;8.52;;;10.85;;
37169;SDS011;23062;13.952;100.608;2024-03-02T11:41:25;8.72;;;11.32;;
37169;SDS011;23062;13.952;100.608;2024-03-02T11:46:10;8.67;;;10.89;;
37169;SDS011;23062;13.952;100.608;2024-03-02T11:50:57;8.07;;;10.45;;
37169;SDS011;23062;13.952;100.608;2024-03-02T11:55:34;9.18;;;11.31;;
37169;SDS011;23062;13.952;100.608;2024-03-02T12:00:24;8.63;;;11.23;;
37169;SDS011;23062;13.952;100.608;2024-03-02T12:05:03;8.97;;;11.20;;
37169;SDS011;23062;13.952;100.608;2024-03-02T12:09:59;9.41;;;11.66;;
37169;SDS011;23062;13.952;100.608;2024-03-02T12:14:53;8.46;;;10.42;;
37169;SDS011;23062;13.952;100.608;2024-03-02T12:19:41;8.85;;;10.87;;
37169;SDS011;23062;13.952;100.608;2024-03-02T12:24:23;9.48;;;11.31;;
37169;SDS011;23062;13.952;100.608;2024-03-02T12:29:15;8.48;;;10.84;;
37169;SDS011;23062;13.952;100.608;2024-03-02T12:33:59;8.40;;;10.53;;
37169;SDS011;23062;13.952;100.608;2024-03-02T12:38:42;9.55;;;11.03;;
37169;SDS011;23062;13.952;100.608;2024-03-02T12:43:31;8.93;;;10.59;;
37169;SDS011;23062;13.952;100.608;2024-03-02T12:48:20;8.13;;;9.75;;
37169;SDS011;23062;13.952;100.608;2024-03-02T12:53:00;7.95;;;9.41;;
37169;SDS011;23062;13.952;100.608;2024-03-02T12:57:47;8.69;;;9.45;;
37169;SDS011;23062;13.952;100.608;2024-03-02T13:02:31;8.35;;;9.44;;
37169;SDS011;23062;13.952;100.608;2024-03-02T13:07:11;8.06;;;9.01;;
37169;SDS011;23062;13.952;100.608;2024-03-02T13:11:49;8.09;;;9.02;;
37169;SDS011;23062;13.952;100.608;2024-03-02T13:16:29;9.57;;;10.32;;
37169;SDS011;23062;13.952;100.608;2024-03-02T13:21:08;7.95;;;9.05;;
37169;SDS011;23062;13.952;100.608;2024-03-02T13:25:55;8.30;;;9.50;;
37169;SDS011;23062;13.952;100.608;2024-03-02T13:30:38;7.74;;;8.65;;
37169;SDS011;23062;13.952;100.608;2024-03-02T13:35:24;8.73;;;9.10;;
37169;SDS011;23062;13.952;100.608;2024-03-02T13:40:09;8.08;;;8.65;;
37169;SDS011;23062;13.952;100.608;2024-03-02T13:44:54;9.45;;;9.92;;
37169;SDS011;23062;13.952;100.608;2024-03-02T13:49:37;9.66;;;10.33;;
37169;SDS011;23062;13.952;100.608;2024-03-02T13:54:23;8.87;;;10.29;;
37169;SDS011;23062;13.952;100.608;2024-03-02T13:59:05;8.62;;;9.44;;
37169;SDS011;23062;13.952;100.608;2024-03-02T14:03:53;7.84;;;8.53;;
37169;SDS011;23062;13.952;100.608;2024-03-02T14:08:34;7.65;;;8.91;;
37169;SDS011;23062;13.952;100.608;2024-03-02T14:13:19;8.64;;;9.74;;
37169;SDS011;23062;13.952;100.608;2024-03-02T14:17:57;8.15;;;9.75;;
37169;SDS011;23062;13.952;100.608;2024-03-02T14:22:45;7.64;;;9.27;;
37169;SDS011;23062;13.952;100.608;2024-03-02T14:27:30;8.42;;;10.11;;
37169;SDS011;23062;13.952;100.608;2024-03-02T14:32:14;8.97;;;10.96;;
37169;SDS011;23062;13.952;100.608;2024-03-02T14:37:00;7.90;;;9.69;;
37169;SDS011;23062;13.952;100.608;2024-03-02T14:41:45;8.39;;;10.10;;
37169;SDS011;23062;13.952;100.608;2024-03-02T14:46:31;8.74;;;10.90;;
37169;SDS011;23062;13.952;100.608;2024-03-02T14:51:11;8.56;;;10.50;;
37169;SDS011;23062;13.952;100.608;2024-03-02T14:55:53;8.61;;;10.45;;
37169;SDS011;23062;13.952;100.608;2024-03-02T15:00:40;9.18;;;11.25;;
37169;SDS011;23062;13.952;100.608;2024-03-02T15:05:25;8.85;;;10.87;;
37169;SDS011;23062;13.952;100.608;2024-03-02T15:10:10;8.28;;;11.21;;
37169;SDS011;23062;13.952;100.608;2024-03-02T15:14:55;9.36;;;11.95;;
37169;SDS011;23062;13.952;100.608;2024-03-02T15:19:44;7.55;;;10.32;;
37169;SDS011;23062;13.952;100.608;2024-03-02T15:24:28;8.62;;;11.12;;
37169;SDS011;23062;13.952;100.608;2024-03-02T15:29:13;9.31;;;12.76;;
37169;SDS011;23062;13.952;100.608;2024-03-02T15:33:51;9.54;;;12.76;;
37169;SDS011;23062;13.952;100.608;2024-03-02T15:38:36;8.91;;;12.31;;
37169;SDS011;23062;13.952;100.608;2024-03-02T15:43:24;9.22;;;12.74;;
37169;SDS011;23062;13.952;100.608;2024-03-02T15:48:13;9.49;;;12.75;;
37169;SDS011;23062;13.952;100.608;2024-03-02T15:53:07;9.57;;;13.18;;
37169;SDS011;23062;13.952;100.608;2024-03-02T15:57:49;9.16;;;12.67;;
37169;SDS011;23062;13.952;100.608;2024-03-02T16:02:39;9.37;;;13.43;;
37169;SDS011;23062;13.952;100.608;2024-03-02T16:07:26;9.18;;;12.57;;
37169;SDS011;23062;13.952;100.608;2024-03-02T16:12:09;8.02;;;11.74;;
37169;SDS011;23062;13.952;100.608;2024-03-02T16:16:58;9.19;;;13.33;;
37169;SDS011;23062;13.952;100.608;2024-03-02T16:21:42;7.20;;;10.93;;
37169;SDS011;23062;13.952;100.608;2024-03-02T16:26:27;8.62;;;12.13;;
37169;SDS011;23062;13.952;100.608;2024-03-02T16:31:14;7.17;;;11.58;;
37169;SDS011;23062;13.952;100.608;2024-03-02T16:35:55;6.96;;;10.82;;
37169;SDS011;23062;13.952;100.608;2024-03-02T16:40:39;7.22;;;10.79;;
37169;SDS011;23062;13.952;100.608;2024-03-02T16:45:27;7.36;;;11.63;;
37169;SDS011;23062;13.952;100.608;2024-03-02T16:50:14;6.66;;;10.40;;
37169;SDS011;23062;13.952;100.608;2024-03-02T16:54:56;6.99;;;10.78;;
37169;SDS011;23062;13.952;100.608;2024-03-02T16:59:42;7.26;;;10.80;;
37169;SDS011;23062;13.952;100.608;2024-03-02T17:04:22;6.29;;;9.96;;
37169;SDS011;23062;13.952;100.608;2024-03-02T17:09:00;6.85;;;11.20;;
37169;SDS011;23062;13.952;100.608;2024-03-02T17:13:45;6.77;;;10.43;;
37169;SDS011;23062;13.952;100.608;2024-03-02T17:18:33;6.05;;;9.19;;
37169;SDS011;23062;13.952;100.608;2024-03-02T17:23:11;5.97;;;9.88;;
37169;SDS011;23062;13.952;100.608;2024-03-02T17:32:59;6.10;;;9.16;;
37169;SDS011;23062;13.952;100.608;2024-03-02T17:37:39;6.41;;;9.59;;
37169;SDS011;23062;13.952;100.608;2024-03-02T17:42:25;6.86;;;10.35;;
37169;SDS011;23062;13.952;100.608;2024-03-02T17:47:03;5.41;;;9.09;;
37169;SDS011;23062;13.952;100.608;2024-03-02T17:51:50;5.93;;;9.12;;
37169;SDS011;23062;13.952;100.608;2024-03-02T17:56:28;5.76;;;9.52;;
37169;SDS011;23062;13.952;100.608;2024-03-02T18:01:10;6.11;;;9.96;;
37169;SDS011;23062;13.952;100.608;2024-03-02T18:05:56;5.68;;;8.75;;
37169;SDS011;23062;13.952;100.608;2024-03-02T18:10:41;5.15;;;8.32;;
37169;SDS011;23062;13.952;100.608;2024-03-02T18:15:27;6.25;;;9.55;;
37169;SDS011;23062;13.952;100.608;2024-03-02T18:20:10;5.38;;;8.73;;
37169;SDS011;23062;13.952;100.608;2024-03-02T18:24:57;5.77;;;9.17;;
37169;SDS011;23062;13.952;100.608;2024-03-02T18:29:42;5.65;;;8.79;;
37169;SDS011;23062;13.952;100.608;2024-03-02T18:34:21;5.30;;;8.36;;
37169;SDS011;23062;13.952;100.608;2024-03-02T18:39:07;5.06;;;8.34;;
37169;SDS011;23062;13.952;100.608;2024-03-02T18:43:54;5.66;;;8.75;;
37169;SDS011;23062;13.952;100.608;2024-03-02T18:48:38;5.51;;;8.36;;
37169;SDS011;23062;13.952;100.608;2024-03-02T18:53:23;4.46;;;7.54;;
37169;SDS011;23062;13.952;100.608;2024-03-02T18:58:09;4.85;;;7.24;;
37169;SDS011;23062;13.952;100.608;2024-03-02T19:02:46;5.51;;;8.00;;
37169;SDS011;23062;13.952;100.608;2024-03-02T19:07:33;4.58;;;6.82;;
37169;SDS011;23062;13.952;100.608;2024-03-02T19:12:11;5.08;;;7.64;;
37169;SDS011;23062;13.952;100.608;2024-03-02T19:16:47;4.58;;;6.39;;
37169;SDS011;23062;13.952;100.608;2024-03-02T19:21:33;4.31;;;6.45;;
37169;SDS011;23062;13.952;100.608;2024-03-02T19:26:14;4.62;;;6.47;;
37169;SDS011;23062;13.952;100.608;2024-03-02T19:31:00;4.54;;;6.45;;
37169;SDS011;23062;13.952;100.608;2024-03-02T19:35:45;4.18;;;5.66;;
37169;SDS011;23062;13.952;100.608;2024-03-02T19:40:30;4.52;;;6.09;;
37169;SDS011;23062;13.952;100.608;2024-03-02T19:45:14;4.25;;;6.08;;
37169;SDS011;23062;13.952;100.608;2024-03-02T19:49:51;4.65;;;6.88;;
37169;SDS011;23062;13.952;100.608;2024-03-02T19:54:34;4.64;;;6.48;;
37169;SDS011;23062;13.952;100.608;2024-03-02T19:59:20;3.83;;;5.67;;
37169;SDS011;23062;13.952;100.608;2024-03-02T20:04:06;4.10;;;6.09;;
37169;SDS011;23062;13.952;100.608;2024-03-02T20:08:45;4.66;;;6.48;;
37169;SDS011;23062;13.952;100.608;2024-03-02T20:13:28;4.34;;;6.05;;
37169;SDS011;23062;13.952;100.608;2024-03-02T20:18:09;4.61;;;6.47;;
37169;SDS011;23062;13.952;100.608;2024-03-02T20:22:52;4.36;;;6.06;;
37169;SDS011;23062;13.952;100.608;2024-03-02T20:27:37;4.43;;;6.47;;
37169;SDS011;23062;13.952;100.608;2024-03-02T20:32:15;4.65;;;6.88;;
37169;SDS011;23062;13.952;100.608;2024-03-02T20:36:52;4.83;;;6.87;;
37169;SDS011;23062;13.952;100.608;2024-03-02T20:41:33;5.28;;;7.69;;
37169;SDS011;23062;13.952;100.608;2024-03-02T20:46:10;3.82;;;6.68;;
37169;SDS011;23062;13.952;100.608;2024-03-02T20:50:56;3.57;;;6.62;;
37169;SDS011;23062;13.952;100.608;2024-03-02T20:55:34;3.82;;;6.99;;
37169;SDS011;23062;13.952;100.608;2024-03-02T21:00:19;3.82;;;7.34;;
37169;SDS011;23062;13.952;100.608;2024-03-02T21:04:58;3.61;;;6.94;;
37169;SDS011;23062;13.952;100.608;2024-03-02T21:09:34;3.08;;;6.15;;
37169;SDS011;23062;13.952;100.608;2024-03-02T21:14:19;3.72;;;7.28;;
37169;SDS011;23062;13.952;100.608;2024-03-02T21:19:01;3.06;;;6.46;;
37169;SDS011;23062;13.952;100.608;2024-03-02T21:23:46;3.02;;;7.49;;
37169;SDS011;23062;13.952;100.608;2024-03-02T21:28:29;3.17;;;7.47;;
37169;SDS011;23062;13.952;100.608;2024-03-02T21:33:15;3.18;;;7.83;;
37169;SDS011;23062;13.952;100.608;2024-03-02T21:37:54;3.06;;;6.78;;
37169;SDS011;23062;13.952;100.608;2024-03-02T21:42:38;3.73;;;7.67;;
37169;SDS011;23062;13.952;100.608;2024-03-02T21:47:23;3.38;;;6.54;;
37169;SDS011;23062;13.952;100.608;2024-03-02T21:52:07;2.87;;;5.40;;
37169;SDS011;23062;13.952;100.608;2024-03-02T21:56:53;3.76;;;6.59;;
37169;SDS011;23062;13.952;100.608;2024-03-02T22:01:38;3.18;;;5.82;;
37169;SDS011;23062;13.952;100.608;2024-03-02T22:06:16;3.47;;;6.59;;
37169;SDS011;23062;13.952;100.608;2024-03-02T22:10:56;3.23;;;5.80;;
37169;SDS011;23062;13.952;100.608;2024-03-02T22:15:36;2.70;;;5.68;;
37169;SDS011;23062;13.952;100.608;2024-03-02T22:20:13;2.48;;;5.66;;
37169;SDS011;23062;13.952;100.608;2024-03-02T22:24:50;2.62;;;6.04;;
37169;SDS011;23062;13.952;100.608;2024-03-02T22:29:37;2.43;;;5.64;;
37169;SDS011;23062;13.952;100.608;2024-03-02T22:34:22;2.90;;;6.77;;
37169;SDS011;23062;13.952;100.608;2024-03-02T22:39:07;2.92;;;6.75;;
37169;SDS011;23062;13.952;100.608;2024-03-02T22:43:51;2.53;;;5.99;;
37169;SDS011;23062;13.952;100.608;2024-03-02T22:48:34;2.39;;;5.61;;
37169;SDS011;23062;13.952;100.608;2024-03-02T22:53:17;2.60;;;5.98;;
37169;SDS011;23062;13.952;100.608;2024-03-02T22:57:53;2.73;;;6.36;;
37169;SDS011;23062;13.952;100.608;2024-03-02T23:02:37;2.43;;;5.97;;
37169;SDS011;23062;13.952;100.608;2024-03-02T23:07:13;2.10;;;5.94;;
37169;SDS011;23062;13.952;100.608;2024-03-02T23:11:52;2.35;;;6.29;;
37169;SDS011;23062;13.952;100.608;2024-03-02T23:16:33;2.16;;;5.90;;
37169;SDS011;23062;13.952;100.608;2024-03-02T23:21:19;2.16;;;6.59;;
37169;SDS011;23062;13.952;100.608;2024-03-02T23:25:56;2.05;;;5.88;;
37169;SDS011;23062;13.952;100.608;2024-03-02T23:30:34;1.90;;;5.84;;
37169;SDS011;23062;13.952;100.608;2024-03-02T23:35:19;2.11;;;6.93;;
37169;SDS011;23062;13.952;100.608;2024-03-02T23:39:57;1.73;;;6.15;;
37169;SDS011;23062;13.952;100.608;2024-03-02T23:44:42;1.83;;;6.17;;
37169;SDS011;23062;13.952;100.608;2024-03-02T23:49:27;1.41;;;6.42;;
37169;SDS011;23062;13.952;100.608;2024-03-02T23:54:11;1.28;;;5.36;;
37169;SDS011;23062;13.952;100.608;2024-03-02T23:58:56;1.36;;;7.09;;
